Terminal Aerodrome Forecast
Issued by NWS Charleston, WV

Home | Current Version | Previous Version | Text Only | Print | Product List | Glossary On
Versions: 1 2 3 4 5 6 7 8 9 10 11 12 13 14 15 16 17 18 19 20 21 22 23 24 25 26 27 28 29 30
000
FTUS41 KRLX 211700
TAFBKW
TAF
KBKW 211720Z 2118/2218 13004KT P6SM FEW040
     FM220100 13006KT P6SM SCT015
     FM220300 14010G15KT P6SM SCT015
     FM220500 14011G17KT P6SM BKN008
     FM221500 14007KT P6SM OVC008=

USA.gov is the U.S. government's official web portal to all federal, state and local government web resources and services.